Time;durP1;ratioP1;P1;durP2;ratioP2;P2;SDS_P1;SDS_P2;PMS_P1;PMS_P2;Temp;Humidity;BMP_temperature;BMP_pressure;BME280_temperature;BME280_humidity;BME280_pressure;Samples;Min_cycle;Max_cycle;Signal;HPM_P1;HPM_P2
2022/07/06 00:00:07;;;;;;;14.07;10.97;;;17.10;99.90;;;;;;5036551;28;20652;-72
2022/07/06 00:02:34;;;;;;;16.80;11.33;;;17.10;99.90;;;;;;5036287;28;20375;-76
2022/07/06 00:05:01;;;;;;;15.20;12.07;;;17.10;99.90;;;;;;5035281;28;20206;-74
2022/07/06 00:07:28;;;;;;;12.47;10.77;;;17.10;99.90;;;;;;5036158;28;20227;-76
2022/07/06 00:09:55;;;;;;;14.20;10.73;;;17.10;99.90;;;;;;5036284;28;20628;-74
2022/07/06 00:12:22;;;;;;;15.57;11.07;;;17.10;99.90;;;;;;5054055;28;20187;-70
2022/07/06 00:14:49;;;;;;;12.20;9.60;;;17.10;99.90;;;;;;5036209;28;20257;-76
2022/07/06 00:17:16;;;;;;;11.23;9.83;;;17.10;99.90;;;;;;5036328;28;20296;-69
2022/07/06 00:19:43;;;;;;;13.70;10.43;;;17.00;99.90;;;;;;5036593;28;20203;-74
2022/07/06 00:22:10;;;;;;;11.30;9.53;;;17.00;99.90;;;;;;5019226;28;20645;-74
2022/07/06 00:24:37;;;;;;;10.93;9.20;;;16.90;99.90;;;;;;5036356;28;20230;-74
2022/07/06 00:27:04;;;;;;;12.03;9.67;;;16.80;99.90;;;;;;5036109;28;20191;-70
2022/07/06 00:29:31;;;;;;;12.43;9.50;;;16.80;99.90;;;;;;5036223;28;20245;-70
2022/07/06 00:31:58;;;;;;;15.30;9.97;;;16.80;99.90;;;;;;5036020;28;20233;-70
2022/07/06 00:34:25;;;;;;;12.47;9.60;;;16.80;99.90;;;;;;5036121;28;20195;-70
2022/07/06 00:36:52;;;;;;;10.73;9.63;;;16.80;99.90;;;;;;5035832;28;20223;-69
2022/07/06 00:39:19;;;;;;;12.93;9.93;;;16.80;99.90;;;;;;5035951;28;20558;-69
2022/07/06 00:41:46;;;;;;;14.10;10.00;;;16.80;99.90;;;;;;5035876;28;20252;-68
2022/07/06 00:44:13;;;;;;;11.17;10.00;;;16.80;99.90;;;;;;5035615;28;20636;-70
2022/07/06 00:46:40;;;;;;;11.50;10.03;;;16.80;99.90;;;;;;5035669;28;20195;-79
2022/07/06 00:50:13;;;;;;;20.87;11.77;;;16.80;99.90;;;;;;5053257;28;20207;-77
2022/07/06 00:51:54;;;;;;;13.57;11.20;;;16.80;99.90;;;;;;5035855;28;20179;-76
2022/07/06 00:54:21;;;;;;;14.97;10.63;;;16.70;99.90;;;;;;5035500;28;20203;-78
2022/07/06 00:56:48;;;;;;;15.13;10.50;;;16.70;99.90;;;;;;5035600;28;20256;-77
2022/07/06 00:59:15;;;;;;;15.47;10.93;;;16.70;99.90;;;;;;5035828;28;20240;-70
2022/07/06 01:01:42;;;;;;;10.40;8.93;;;16.70;99.90;;;;;;5035185;28;20619;-77
2022/07/06 01:04:09;;;;;;;11.27;8.93;;;16.60;99.90;;;;;;5034673;28;20227;-78
2022/07/06 01:06:36;;;;;;;10.53;8.87;;;16.60;99.90;;;;;;5035419;28;20266;-78
2022/07/06 01:09:05;;;;;;;11.47;9.10;;;16.60;99.90;;;;;;5035831;28;20223;-77
2022/07/06 01:11:32;;;;;;;8.60;7.70;;;16.60;99.90;;;;;;5035156;28;20199;-75
2022/07/06 01:14:01;;;;;;;9.47;8.20;;;16.60;99.90;;;;;;5035437;28;20198;-76
2022/07/06 01:16:28;;;;;;;9.67;7.97;;;16.50;99.90;;;;;;5035261;28;20588;-78
2022/07/06 01:18:55;;;;;;;9.07;8.10;;;16.50;99.90;;;;;;5035074;28;20220;-77
2022/07/06 01:21:22;;;;;;;10.00;7.97;;;16.40;99.90;;;;;;5035411;28;20194;-75
2022/07/06 01:23:49;;;;;;;9.43;8.20;;;16.30;99.90;;;;;;5035379;28;20289;-76
2022/07/06 01:26:19;;;;;;;17.50;8.10;;;16.40;99.90;;;;;;5052847;28;20623;-78
2022/07/06 01:28:51;;;;;;;8.87;7.97;;;16.30;99.90;;;;;;5053247;28;20657;-77
2022/07/06 01:31:21;;;;;;;10.90;7.93;;;16.30;99.90;;;;;;5034714;28;20545;-76
2022/07/06 01:33:50;;;;;;;10.20;8.10;;;16.30;99.90;;;;;;5035234;28;20206;-77
2022/07/06 01:36:17;;;;;;;11.20;8.33;;;16.30;99.90;;;;;;5034817;28;20215;-76
2022/07/06 01:38:48;;;;;;;12.53;8.87;;;16.30;99.90;;;;;;5035240;28;20199;-75
2022/07/06 01:41:16;;;;;;;10.83;8.93;;;16.30;99.90;;;;;;5053128;28;20269;-75
2022/07/06 01:43:43;;;;;;;11.67;9.30;;;16.30;99.90;;;;;;5034808;28;20201;-76
2022/07/06 01:46:11;;;;;;;10.13;9.00;;;16.30;99.90;;;;;;5034834;28;20205;-76
2022/07/06 01:48:39;;;;;;;10.53;8.87;;;16.30;99.90;;;;;;5034595;28;20211;-76
2022/07/06 01:51:06;;;;;;;12.53;9.57;;;16.30;99.90;;;;;;5052651;28;20241;-75
2022/07/06 01:53:33;;;;;;;10.70;8.50;;;16.30;99.90;;;;;;5035188;28;20559;-75
2022/07/06 01:56:00;;;;;;;13.83;9.07;;;16.30;99.90;;;;;;5035009;28;20202;-72
2022/07/06 01:58:27;;;;;;;11.63;8.87;;;16.30;99.90;;;;;;5034994;28;20195;-75
2022/07/06 02:00:54;;;;;;;12.20;8.57;;;16.30;99.90;;;;;;5034786;28;20195;-76
2022/07/06 02:03:21;;;;;;;11.37;8.70;;;16.40;99.90;;;;;;5034899;28;20294;-76
2022/07/06 02:05:48;;;;;;;10.80;8.23;;;16.30;99.90;;;;;;5034946;28;20631;-76
2022/07/06 02:08:15;;;;;;;12.90;8.30;;;16.30;99.90;;;;;;5034939;28;20252;-75
2022/07/06 02:10:42;;;;;;;10.20;7.80;;;16.30;99.90;;;;;;5034702;28;20203;-74
2022/07/06 02:13:09;;;;;;;10.30;7.80;;;16.30;99.90;;;;;;5034579;28;20203;-75
2022/07/06 02:15:36;;;;;;;11.73;8.27;;;16.30;99.90;;;;;;5037628;28;20255;-75
2022/07/06 02:18:03;;;;;;;14.60;8.40;;;16.30;99.90;;;;;;5038189;28;20226;-76
2022/07/06 02:20:30;;;;;;;9.67;8.17;;;16.30;99.90;;;;;;5038496;28;20282;-76
2022/07/06 02:22:57;;;;;;;12.87;8.80;;;16.30;99.90;;;;;;5056131;28;20199;-74
2022/07/06 02:25:24;;;;;;;11.03;8.43;;;16.20;99.90;;;;;;5038287;28;20187;-76
2022/07/06 02:27:51;;;;;;;10.97;8.00;;;16.30;99.90;;;;;;5038329;28;20636;-76
2022/07/06 02:30:18;;;;;;;10.63;8.40;;;16.30;99.90;;;;;;5037996;28;20282;-76
2022/07/06 02:32:45;;;;;;;12.53;8.50;;;16.30;99.90;;;;;;5055863;28;20198;-75
2022/07/06 02:35:12;;;;;;;10.63;8.17;;;16.30;99.90;;;;;;5038567;28;20210;-76
2022/07/06 02:37:39;;;;;;;9.37;8.07;;;16.30;99.90;;;;;;5038035;28;20235;-76
2022/07/06 02:40:07;;;;;;;10.53;8.00;;;16.30;99.90;;;;;;5038429;28;20191;-77
2022/07/06 02:42:34;;;;;;;10.37;8.27;;;16.30;99.90;;;;;;5038247;28;20206;-78
2022/07/06 02:45:01;;;;;;;9.93;7.83;;;16.30;99.90;;;;;;5038159;28;20298;-78
2022/07/06 02:47:28;;;;;;;10.93;8.50;;;16.30;99.90;;;;;;5038191;28;20201;-69
2022/07/06 02:49:55;;;;;;;10.53;7.80;;;16.30;99.90;;;;;;5055921;28;20632;-70
2022/07/06 02:52:22;;;;;;;9.80;7.77;;;16.30;99.90;;;;;;5037738;28;20202;-70
2022/07/06 02:54:49;;;;;;;10.73;7.67;;;16.30;99.90;;;;;;5038098;28;20559;-78
2022/07/06 02:57:16;;;;;;;10.30;7.80;;;16.30;99.90;;;;;;5055800;28;20221;-69
2022/07/06 02:59:44;;;;;;;11.10;7.50;;;16.30;99.90;;;;;;5037810;28;20270;-75
2022/07/06 03:02:10;;;;;;;8.37;7.17;;;16.30;99.90;;;;;;5037592;28;20191;-78
2022/07/06 03:04:37;;;;;;;7.67;6.17;;;16.20;99.90;;;;;;5037716;28;20195;-77
2022/07/06 03:07:04;;;;;;;7.33;6.47;;;16.30;99.90;;;;;;5037414;28;20235;-70
2022/07/06 03:09:31;;;;;;;9.07;6.43;;;16.30;99.90;;;;;;5037646;28;20614;-75
2022/07/06 03:11:58;;;;;;;7.73;6.23;;;16.30;99.90;;;;;;5055057;28;20183;-70
2022/07/06 03:14:25;;;;;;;7.33;6.47;;;16.20;99.90;;;;;;5037180;28;20716;-78
2022/07/06 03:16:53;;;;;;;9.77;6.90;;;16.30;99.90;;;;;;5037272;28;20225;-75
2022/07/06 03:19:20;;;;;;;9.03;6.30;;;16.30;99.90;;;;;;5037614;28;20190;-78
2022/07/06 03:21:47;;;;;;;9.00;6.37;;;16.20;99.90;;;;;;5055032;28;20193;-71
2022/07/06 03:24:14;;;;;;;7.47;6.40;;;16.20;99.90;;;;;;5037183;28;20295;-77
2022/07/06 03:26:41;;;;;;;9.00;6.53;;;16.20;99.90;;;;;;5036880;28;20311;-77
2022/07/06 03:29:08;;;;;;;7.93;6.23;;;16.20;99.90;;;;;;5036797;28;20199;-76
2022/07/06 03:31:35;;;;;;;7.23;6.40;;;16.20;99.90;;;;;;5037013;28;20199;-76
2022/07/06 03:34:02;;;;;;;8.97;6.40;;;16.20;99.90;;;;;;5054655;28;20199;-78
2022/07/06 03:36:29;;;;;;;7.43;6.37;;;16.20;99.90;;;;;;5036974;28;20285;-76
2022/07/06 03:39:04;;;;;;;10.27;7.00;;;16.30;99.90;;;;;;5037065;28;20207;-77
2022/07/06 03:41:32;;;;;;;8.70;6.97;;;16.30;99.90;;;;;;5036600;28;20203;-76
2022/07/06 03:43:59;;;;;;;7.57;6.30;;;16.30;99.90;;;;;;5054518;28;20551;-75
2022/07/06 03:46:26;;;;;;;8.10;6.33;;;16.30;99.90;;;;;;5036932;28;20578;-73
2022/07/06 03:48:53;;;;;;;8.50;6.40;;;16.30;99.90;;;;;;5036801;28;20218;-75
2022/07/06 03:51:20;;;;;;;7.80;6.30;;;16.40;99.90;;;;;;5036816;28;20194;-78
2022/07/06 03:53:47;;;;;;;7.63;5.20;;;16.40;99.90;;;;;;5036409;28;20268;-76
2022/07/06 03:56:29;;;;;;;6.97;5.47;;;16.40;99.90;;;;;;5036660;28;20195;-73
2022/07/06 03:58:57;;;;;;;6.10;5.20;;;16.40;99.90;;;;;;5036712;28;20298;-78
2022/07/06 04:01:24;;;;;;;6.73;5.00;;;16.40;99.90;;;;;;5036241;28;20313;-76
2022/07/06 04:03:52;;;;;;;5.77;4.97;;;16.40;99.90;;;;;;5036519;28;20201;-74
2022/07/06 04:06:19;;;;;;;6.77;4.90;;;16.30;99.90;;;;;;5054331;28;20289;-76
2022/07/06 04:08:46;;;;;;;5.67;5.00;;;16.30;99.90;;;;;;5036286;28;20603;-71
2022/07/06 04:11:13;;;;;;;7.73;4.97;;;16.30;99.90;;;;;;5036243;28;20289;-77
2022/07/06 04:13:40;;;;;;;7.00;5.43;;;16.40;99.90;;;;;;5036327;28;20197;-78
2022/07/06 04:16:08;;;;;;;5.70;5.20;;;16.40;99.90;;;;;;5036088;28;20206;-78
2022/07/06 04:18:35;;;;;;;5.57;4.97;;;16.50;99.90;;;;;;5053896;28;20227;-76
2022/07/06 04:21:03;;;;;;;7.63;4.73;;;16.50;99.90;;;;;;5035864;28;20230;-72
2022/07/06 04:23:30;;;;;;;5.63;5.03;;;16.50;99.90;;;;;;5053730;28;20218;-71
2022/07/06 04:25:57;;;;;;;9.33;4.70;;;16.50;99.90;;;;;;5053831;28;20191;-73
2022/07/06 04:28:24;;;;;;;6.53;4.77;;;16.50;99.90;;;;;;5036100;28;20227;-77
2022/07/06 04:30:52;;;;;;;6.40;4.20;;;16.50;99.90;;;;;;5035744;28;20198;-76
2022/07/06 04:33:18;;;;;;;9.07;4.50;;;16.50;99.90;;;;;;5035563;28;20201;-77
2022/07/06 04:35:45;;;;;;;7.63;4.47;;;16.50;99.90;;;;;;5053546;28;20232;-77
2022/07/06 04:38:12;;;;;;;5.13;4.33;;;16.50;99.90;;;;;;5034592;28;20222;-70
2022/07/06 04:40:39;;;;;;;5.27;4.20;;;16.50;99.90;;;;;;5035897;28;20281;-76
2022/07/06 04:43:06;;;;;;;5.97;4.70;;;16.50;99.90;;;;;;5053366;28;20198;-70
2022/07/06 04:45:33;;;;;;;5.20;4.37;;;16.40;99.90;;;;;;5035714;28;20361;-77
2022/07/06 04:48:00;;;;;;;4.37;3.97;;;16.50;99.90;;;;;;5035472;28;20230;-78
2022/07/06 04:50:27;;;;;;;5.43;4.13;;;16.40;99.90;;;;;;5035489;28;20266;-73
2022/07/06 04:52:54;;;;;;;4.63;4.23;;;16.40;99.90;;;;;;5035387;28;20282;-76
2022/07/06 04:55:21;;;;;;;6.13;3.83;;;16.50;99.90;;;;;;5035470;28;20199;-74
2022/07/06 04:57:48;;;;;;;5.10;4.13;;;16.40;99.90;;;;;;5053477;28;20223;-77
2022/07/06 05:00:15;;;;;;;5.00;4.33;;;16.40;99.90;;;;;;5035683;28;20282;-77
2022/07/06 05:02:42;;;;;;;5.73;4.47;;;16.50;99.90;;;;;;5035576;28;20249;-77
2022/07/06 05:05:09;;;;;;;4.40;3.83;;;16.50;99.90;;;;;;5035609;28;20186;-76
2022/07/06 05:07:39;;;;;;;5.13;3.90;;;16.50;99.90;;;;;;5035387;28;20280;-76
2022/07/06 05:10:08;;;;;;;5.17;3.83;;;16.40;99.90;;;;;;5035383;28;20205;-74
2022/07/06 05:12:35;;;;;;;4.40;3.40;;;16.40;99.90;;;;;;5035058;28;20201;-74
2022/07/06 05:15:03;;;;;;;4.00;3.60;;;16.30;99.90;;;;;;5035325;28;20205;-77
2022/07/06 05:17:30;;;;;;;4.83;3.40;;;16.30;99.90;;;;;;5035103;28;20223;-77
2022/07/06 05:19:57;;;;;;;4.17;3.63;;;16.30;99.90;;;;;;5035100;28;20639;-69
2022/07/06 05:22:24;;;;;;;6.33;4.13;;;16.30;99.90;;;;;;5035188;28;20240;-75
2022/07/06 05:24:51;;;;;;;5.60;4.30;;;16.40;99.90;;;;;;5035331;28;20194;-76
2022/07/06 05:27:19;;;;;;;5.97;4.40;;;16.50;99.90;;;;;;5034966;28;20209;-76
2022/07/06 05:29:46;;;;;;;6.90;4.70;;;16.70;99.90;;;;;;5052836;28;20195;-77
2022/07/06 05:32:12;;;;;;;5.93;4.40;;;16.80;99.90;;;;;;5034834;28;20208;-75
2022/07/06 05:34:39;;;;;;;5.40;4.33;;;17.00;99.90;;;;;;5034950;28;20222;-78
2022/07/06 05:37:06;;;;;;;9.00;4.60;;;17.10;99.90;;;;;;5018352;28;20737;-78
2022/07/06 05:39:33;;;;;;;6.13;4.63;;;17.20;99.90;;;;;;5035000;28;20245;-77
2022/07/06 05:42:00;;;;;;;6.57;4.73;;;17.30;99.90;;;;;;5034952;28;20281;-79
2022/07/06 05:44:27;;;;;;;5.20;4.53;;;17.40;99.90;;;;;;5035134;28;20297;-78
2022/07/06 05:50:11;;;;;;;5.10;4.60;;;17.50;99.90;;;;;;5035277;28;20237;-78
2022/07/06 05:52:26;;;;;;;8.47;4.30;;;17.50;99.90;;;;;;5056724;28;20194;-69
2022/07/06 05:54:53;;;;;;;8.20;4.17;;;17.50;99.90;;;;;;5039106;28;20199;-69
2022/07/06 05:57:20;;;;;;;5.73;4.30;;;17.40;99.90;;;;;;5057068;28;20218;-70
2022/07/06 05:59:47;;;;;;;6.03;4.30;;;17.40;99.90;;;;;;5038743;28;20302;-70
2022/07/06 06:02:14;;;;;;;7.07;4.40;;;17.30;99.90;;;;;;5056501;28;20194;-69
2022/07/06 06:04:41;;;;;;;5.10;4.07;;;17.30;99.90;;;;;;5038838;28;20213;-68
2022/07/06 06:07:08;;;;;;;7.83;4.80;;;17.30;99.90;;;;;;5056807;28;20227;-69
2022/07/06 06:09:35;;;;;;;5.20;4.70;;;17.40;99.90;;;;;;5032897;28;20192;-78
2022/07/06 06:12:02;;;;;;;7.27;5.30;;;17.50;99.90;;;;;;5053382;28;20274;-79
2022/07/06 06:14:29;;;;;;;6.33;5.60;;;17.60;99.90;;;;;;5028833;28;20199;-78
2022/07/06 06:16:55;;;;;;;6.63;4.97;;;17.70;99.90;;;;;;5018562;28;20195;-78
2022/07/06 06:19:22;;;;;;;5.37;4.70;;;17.90;99.90;;;;;;5018841;28;20212;-78
2022/07/06 06:21:51;;;;;;;6.60;4.87;;;18.00;99.90;;;;;;5018883;28;20207;-77
2022/07/06 06:24:18;;;;;;;10.27;5.13;;;18.10;99.90;;;;;;5018595;28;20192;-78
2022/07/06 06:26:45;;;;;;;7.23;5.40;;;18.30;99.90;;;;;;5018593;28;20203;-75
2022/07/06 06:29:12;;;;;;;5.97;4.70;;;18.50;99.90;;;;;;5036078;28;20664;-76
2022/07/06 06:31:39;;;;;;;8.00;5.33;;;18.60;99.90;;;;;;5002004;28;20612;-76
2022/07/06 06:34:07;;;;;;;7.23;5.53;;;18.60;99.90;;;;;;5018366;28;20196;-76
2022/07/06 06:36:34;;;;;;;8.20;5.90;;;18.60;99.90;;;;;;5018350;28;20691;-77
2022/07/06 06:39:02;;;;;;;6.23;5.50;;;18.60;99.90;;;;;;5018291;28;20233;-78
2022/07/06 06:41:29;;;;;;;8.80;6.00;;;18.60;99.90;;;;;;5018591;28;20194;-76
2022/07/06 06:43:56;;;;;;;7.93;6.30;;;18.60;99.90;;;;;;5018329;28;20565;-76
2022/07/06 06:46:23;;;;;;;7.70;5.70;;;18.70;99.90;;;;;;5018063;28;20230;-76
2022/07/06 06:48:50;;;;;;;9.63;5.93;;;18.70;99.90;;;;;;5018208;28;20277;-70
2022/07/06 06:51:17;;;;;;;10.97;6.70;;;18.80;99.90;;;;;;5017980;28;20220;-75
2022/07/06 06:53:43;;;;;;;9.07;6.10;;;18.80;99.90;;;;;;5035992;28;20195;-72
2022/07/06 06:56:10;;;;;;;8.57;6.67;;;18.90;99.90;;;;;;5018349;28;20202;-76
2022/07/06 06:58:38;;;;;;;8.83;5.83;;;19.10;99.90;;;;;;5018307;28;20330;-78
2022/07/06 07:01:25;;;;;;;9.93;6.10;;;19.10;99.90;;;;;;5034418;28;20200;-77
2022/07/06 07:03:52;;;;;;;9.57;6.03;;;19.20;99.90;;;;;;5017725;28;20747;-73
2022/07/06 07:06:19;;;;;;;8.83;5.60;;;19.40;99.90;;;;;;5017706;28;20218;-76
2022/07/06 07:08:46;;;;;;;6.87;5.63;;;19.50;99.90;;;;;;5014655;28;20267;-72
2022/07/06 07:11:13;;;;;;;6.87;5.10;;;19.70;99.90;;;;;;5014799;28;20287;-70
2022/07/06 07:13:40;;;;;;;12.63;6.20;;;19.70;99.90;;;;;;5014649;28;20192;-77
2022/07/06 07:16:07;;;;;;;10.27;6.60;;;19.80;99.90;;;;;;5014590;28;20206;-77
2022/07/06 07:18:34;;;;;;;9.43;6.00;;;19.80;99.90;;;;;;5014208;28;20271;-76
2022/07/06 07:21:01;;;;;;;7.57;5.90;;;19.70;99.90;;;;;;5015327;28;20258;-77
2022/07/06 07:23:28;;;;;;;6.87;5.43;;;19.70;99.90;;;;;;5014239;28;20299;-73
2022/07/06 07:25:55;;;;;;;11.33;6.10;;;19.80;99.90;;;;;;5015359;28;20188;-73
2022/07/06 07:28:22;;;;;;;8.97;6.03;;;19.70;99.90;;;;;;5014015;28;20200;-75
2022/07/06 07:30:50;;;;;;;9.63;5.80;;;19.70;99.90;;;;;;5014177;28;20255;-75
2022/07/06 07:33:17;;;;;;;10.00;6.40;;;19.60;99.90;;;;;;5013906;28;20196;-75
2022/07/06 07:35:44;;;;;;;7.77;6.10;;;19.70;99.90;;;;;;5013843;28;20248;-74
2022/07/06 07:38:11;;;;;;;8.17;6.40;;;19.80;99.90;;;;;;5015208;28;20240;-75
2022/07/06 07:40:38;;;;;;;10.13;8.20;;;20.00;99.90;;;;;;5013946;28;20649;-73
2022/07/06 07:43:08;;;;;;;15.87;8.77;;;20.00;99.90;;;;;;5015712;28;20636;-72
2022/07/06 07:45:35;;;;;;;9.97;7.47;;;20.10;99.90;;;;;;5014806;28;20188;-75
2022/07/06 07:48:03;;;;;;;8.80;7.17;;;20.30;99.90;;;;;;5015603;28;20716;-78
2022/07/06 07:50:30;;;;;;;13.07;8.10;;;20.20;99.90;;;;;;5014229;28;20215;-72
2022/07/06 07:52:57;;;;;;;9.73;6.77;;;20.20;99.90;;;;;;5013453;28;20239;-75
2022/07/06 07:55:23;;;;;;;8.53;6.60;;;20.20;99.90;;;;;;5013433;28;20184;-75
2022/07/06 07:58:08;;;;;;;9.00;5.97;;;20.20;99.90;;;;;;5013705;28;20838;-69
2022/07/06 08:00:36;;;;;;;9.60;5.40;;;20.20;99.90;;;;;;5014543;28;20202;-75
2022/07/06 08:03:02;;;;;;;8.17;5.23;;;20.00;99.90;;;;;;5014765;28;20566;-70
2022/07/06 08:05:29;;;;;;;7.10;5.50;;;20.10;99.90;;;;;;5013183;28;20733;-72
2022/07/06 08:07:56;;;;;;;7.83;5.00;;;20.00;99.90;;;;;;5013289;28;20250;-72
2022/07/06 08:10:23;;;;;;;6.13;4.67;;;20.00;99.90;;;;;;5013296;28;20274;-71
2022/07/06 08:12:50;;;;;;;8.50;5.20;;;20.10;99.90;;;;;;5012893;28;20677;-74
2022/07/06 08:15:17;;;;;;;7.13;4.80;;;20.20;99.90;;;;;;5013369;28;20250;-70
2022/07/06 08:17:45;;;;;;;6.60;5.10;;;20.30;99.90;;;;;;5013122;28;20219;-70
2022/07/06 08:20:13;;;;;;;6.77;4.40;;;20.20;99.90;;;;;;5014339;28;20291;-70
2022/07/06 08:22:41;;;;;;;5.87;3.73;;;20.30;99.90;;;;;;5014078;28;20238;-69
2022/07/06 08:25:09;;;;;;;6.47;3.20;;;20.30;99.90;;;;;;5012685;28;20639;-69
2022/07/06 08:27:36;;;;;;;4.50;3.00;;;20.40;99.90;;;;;;5014211;28;20649;-70
2022/07/06 08:30:04;;;;;;;6.37;3.10;;;20.70;99.90;;;;;;5014907;28;20275;-69
2022/07/06 08:32:31;;;;;;;7.60;3.30;;;21.30;99.90;;;;;;5032764;28;20214;-70
2022/07/06 08:35:18;;;;;;;4.93;3.55;;;22.20;99.90;;;;;;5032495;28;20203;-70
2022/07/06 08:37:45;;;;;;;6.32;3.53;;;22.80;99.90;;;;;;5032491;28;20637;-73
2022/07/06 08:40:12;;;;;;;7.30;3.00;;;22.80;99.90;;;;;;5034079;28;20274;-74
2022/07/06 08:42:40;;;;;;;5.25;2.92;;;22.70;99.90;;;;;;5032252;28;20278;-74
2022/07/06 08:45:07;;;;;;;5.85;3.55;;;22.60;99.90;;;;;;5034015;28;20219;-77
2022/07/06 08:47:37;;;;;;;5.90;3.70;;;22.60;99.90;;;;;;5032312;28;20226;-76
2022/07/06 08:50:05;;;;;;;5.28;2.90;;;23.20;99.90;;;;;;5033241;28;20216;-74
2022/07/06 08:52:32;;;;;;;4.63;2.50;;;23.30;99.90;;;;;;5033332;28;20241;-70
2022/07/06 08:55:00;;;;;;;6.22;2.38;;;24.00;99.90;;;;;;5032264;28;20199;-74
2022/07/06 08:57:28;;;;;;;4.72;2.20;;;23.90;99.90;;;;;;5032399;28;20286;-74
2022/07/06 08:59:55;;;;;;;3.17;1.90;;;24.30;99.90;;;;;;5032363;28;20227;-73
2022/07/06 09:02:28;;;;;;;4.18;1.88;;;25.00;99.90;;;;;;5031691;28;20266;-75
2022/07/06 09:04:57;;;;;;;5.45;1.88;;;25.60;99.90;;;;;;5031830;28;20195;-75
2022/07/06 09:07:31;;;;;;;4.18;2.10;;;25.50;99.90;;;;;;5031650;28;20267;-76
2022/07/06 09:10:20;;;;;;;3.95;2.00;;;25.00;99.90;;;;;;5033306;28;20203;-74
2022/07/06 09:12:47;;;;;;;6.68;2.20;;;23.90;99.90;;;;;;5033076;28;20249;-73
2022/07/06 09:15:15;;;;;;;4.10;1.80;;;23.50;99.90;;;;;;5031988;28;20199;-72
2022/07/06 09:17:43;;;;;;;4.18;2.00;;;23.00;99.90;;;;;;5031711;28;20204;-70
2022/07/06 09:20:12;;;;;;;4.38;2.13;;;22.80;99.90;;;;;;5031629;28;20624;-74
2022/07/06 09:22:39;;;;;;;2.90;1.73;;;22.80;99.90;;;;;;5033033;28;20191;-73
2022/07/06 09:25:10;;;;;;;4.45;1.60;;;22.40;99.90;;;;;;5031281;28;20199;-76
2022/07/06 09:27:39;;;;;;;4.78;2.10;;;23.10;99.90;;;;;;5032858;28;20192;-73
2022/07/06 09:30:08;;;;;;;3.92;2.20;;;23.90;99.90;;;;;;5031805;28;20223;-78
2022/07/06 09:32:43;;;;;;;2.28;1.92;;;24.60;99.90;;;;;;5031381;28;20191;-77
2022/07/06 09:35:37;;;;;;;5.05;1.90;;;25.10;99.90;;;;;;5032747;28;20273;-78
2022/07/06 09:38:14;;;;;;;4.45;1.88;;;25.20;99.90;;;;;;4971865;28;20217;-80
2022/07/06 09:40:44;;;;;;;3.60;1.88;;;24.80;99.90;;;;;;4956222;28;20599;-81
2022/07/06 09:43:14;;;;;;;2.50;1.50;;;24.40;99.90;;;;;;4954057;28;20202;-82
2022/07/06 09:45:45;;;;;;;2.05;1.25;;;24.70;99.90;;;;;;4948340;28;20236;-79
2022/07/06 09:48:21;;;;;;;3.30;1.15;;;24.90;99.90;;;;;;4965797;28;20763;-78
2022/07/06 09:50:54;;;;;;;2.75;1.30;;;25.30;99.90;;;;;;4955735;28;20260;-81
2022/07/06 09:53:24;;;;;;;2.85;1.42;;;24.50;99.90;;;;;;4955632;28;20202;-79
2022/07/06 09:55:54;;;;;;;3.00;1.42;;;24.50;99.90;;;;;;4955658;28;20201;-80
2022/07/06 09:58:22;;;;;;;1.92;1.23;;;24.30;99.90;;;;;;4956110;28;20245;-82
2022/07/06 10:01:09;;;;;;;3.08;1.27;;;23.80;99.90;;;;;;4955649;28;20197;-77
2022/07/06 10:03:37;;;;;;;2.90;1.30;;;23.60;99.90;;;;;;4970066;28;20233;-74
2022/07/06 10:06:05;;;;;;;14.70;2.05;;;24.00;99.90;;;;;;4954819;28;20714;-86
2022/07/06 10:08:33;;;;;;;2.53;1.10;;;24.80;99.90;;;;;;4946289;28;20230;-79
2022/07/06 10:11:01;;;;;;;2.38;1.20;;;24.90;99.90;;;;;;4953492;28;20202;-76
2022/07/06 10:13:30;;;;;;;4.63;1.05;;;25.10;99.90;;;;;;4971817;28;20685;-78
2022/07/06 10:15:57;;;;;;;3.58;1.20;;;25.20;99.90;;;;;;5015719;28;20200;-79
2022/07/06 10:18:25;;;;;;;1.70;1.05;;;25.00;99.90;;;;;;5032598;28;20738;-80
2022/07/06 10:20:53;;;;;;;1.42;0.80;;;25.50;99.90;;;;;;5031031;28;20637;-79
2022/07/06 10:23:21;;;;;;;4.28;1.02;;;26.00;99.90;;;;;;5031413;28;20731;-81
2022/07/06 10:25:48;;;;;;;1.83;1.00;;;26.60;99.90;;;;;;5031227;28;20722;-80
2022/07/06 10:28:17;;;;;;;3.13;1.00;;;26.90;97.60;;;;;;5032764;28;20184;-79
2022/07/06 10:30:45;;;;;;;2.10;0.90;;;27.10;95.50;;;;;;5031039;28;20199;-81
2022/07/06 10:33:14;;;;;;;0.82;0.80;;;27.50;96.90;;;;;;5030869;28;20192;-81
2022/07/06 10:35:42;;;;;;;4.82;0.90;;;28.00;95.40;;;;;;5032711;28;20199;-80
2022/07/06 10:38:10;;;;;;;2.00;0.70;;;27.00;89.10;;;;;;5034546;28;20211;-79
2022/07/06 10:43:37;;;;;;;2.83;0.93;;;27.20;89.60;;;;;;5035642;28;20192;-77
2022/07/06 10:46:08;;;;;;;1.48;0.63;;;27.80;88.90;;;;;;5034309;28;20231;-75
2022/07/06 10:48:43;;;;;;;2.90;0.85;;;26.90;80.00;;;;;;5030639;28;20196;-76
2022/07/06 10:51:43;;;;;;;3.60;1.00;;;26.30;84.10;;;;;;5027446;28;20222;-78
2022/07/06 10:54:11;;;;;;;1.42;0.70;;;26.90;90.00;;;;;;4954855;29;20298;-73
2022/07/06 10:56:42;;;;;;;1.77;0.60;;;26.70;88.50;;;;;;4955460;29;20690;-77
2022/07/06 10:59:14;;;;;;;4.68;0.80;;;26.60;88.60;;;;;;4948542;29;20237;-77
2022/07/06 11:02:01;;;;;;;1.27;0.90;;;26.20;89.90;;;;;;4936353;29;20199;-75
2022/07/06 11:04:32;;;;;;;2.28;0.90;;;25.20;87.50;;;;;;4919948;29;20289;-77
2022/07/06 11:07:08;;;;;;;1.92;0.77;;;26.00;90.50;;;;;;4935645;29;20298;-75
2022/07/06 11:09:36;;;;;;;1.95;0.88;;;26.00;86.40;;;;;;4936045;29;20711;-77
2022/07/06 11:12:16;;;;;;;4.38;1.10;;;26.10;88.30;;;;;;4935968;29;20571;-75
2022/07/06 11:14:47;;;;;;;2.70;0.88;;;26.80;89.20;;;;;;4919983;29;20230;-76
2022/07/06 11:17:16;;;;;;;0.93;0.70;;;27.20;86.90;;;;;;4904552;29;20614;-77
2022/07/06 11:19:57;;;;;;;2.42;0.80;;;27.50;86.70;;;;;;4919514;29;20222;-76
2022/07/06 11:22:29;;;;;;;2.10;0.80;;;27.00;82.90;;;;;;4935789;29;20587;-76
2022/07/06 11:24:56;;;;;;;9.80;1.10;;;26.90;80.40;;;;;;4919759;29;20207;-78
2022/07/06 11:27:27;;;;;;;1.55;0.75;;;27.10;86.60;;;;;;4935722;29;20217;-78
2022/07/06 11:29:54;;;;;;;2.53;0.80;;;27.60;81.60;;;;;;4968773;28;20641;-78
2022/07/06 11:32:28;;;;;;;1.83;0.82;;;27.10;76.70;;;;;;5022508;28;20219;-75
2022/07/06 11:34:56;;;;;;;4.43;0.90;;;27.00;75.50;;;;;;5035094;28;20198;-75
2022/07/06 11:37:23;;;;;;;8.18;1.13;;;27.50;77.20;;;;;;5033524;28;20199;-79
2022/07/06 11:39:50;;;;;;;2.10;0.82;;;27.80;79.90;;;;;;5033694;28;20280;-77
2022/07/06 11:42:18;;;;;;;1.48;0.85;;;28.30;73.70;;;;;;5033309;28;20302;-75
2022/07/06 11:44:45;;;;;;;2.00;0.80;;;28.80;71.20;;;;;;5033272;28;20656;-76
2022/07/06 11:47:13;;;;;;;1.45;0.65;;;29.60;74.20;;;;;;5033132;28;20299;-76
2022/07/06 11:49:49;;;;;;;3.63;1.00;;;29.60;71.30;;;;;;5033235;28;20238;-75
2022/07/06 11:52:16;;;;;;;2.30;0.90;;;29.50;70.90;;;;;;5033504;28;20645;-74
2022/07/06 11:54:44;;;;;;;4.00;0.90;;;29.30;73.40;;;;;;5033629;28;20234;-74
2022/07/06 11:57:12;;;;;;;2.05;0.90;;;29.00;72.70;;;;;;5033449;28;20300;-74
2022/07/06 11:59:41;;;;;;;0.88;0.73;;;28.70;74.60;;;;;;5033323;28;20314;-72
2022/07/06 12:02:09;;;;;;;1.85;1.10;;;28.20;74.60;;;;;;5033115;28;20183;-71
2022/07/06 12:04:42;;;;;;;2.42;1.00;;;28.00;75.20;;;;;;5033317;28;20214;-73
2022/07/06 12:07:14;;;;;;;2.00;0.80;;;28.50;74.40;;;;;;5040497;28;20223;-71
2022/07/06 12:09:44;;;;;;;1.65;0.65;;;28.60;69.20;;;;;;5036478;28;20294;-72
2022/07/06 12:12:12;;;;;;;1.23;0.80;;;28.60;67.50;;;;;;5036143;28;20640;-75
2022/07/06 12:14:41;;;;;;;2.45;0.80;;;28.70;66.30;;;;;;5036594;28;20609;-74
2022/07/06 12:17:10;;;;;;;2.38;0.90;;;29.00;71.50;;;;;;5036633;28;20199;-74
2022/07/06 12:19:42;;;;;;;3.22;0.98;;;29.20;73.60;;;;;;5036057;28;20226;-73
2022/07/06 12:22:11;;;;;;;4.00;0.90;;;29.40;70.30;;;;;;5036263;28;20202;-73
2022/07/06 12:24:44;;;;;;;7.35;1.00;;;28.10;64.00;;;;;;5036391;28;20274;-74
2022/07/06 12:27:18;;;;;;;2.33;0.82;;;28.40;71.50;;;;;;5054048;28;20522;-75
2022/07/06 12:29:46;;;;;;;4.72;0.82;;;29.00;68.90;;;;;;5035845;28;20190;-75
2022/07/06 12:32:28;;;;;;;2.00;1.10;;;29.40;69.50;;;;;;5033751;28;20234;-76
2022/07/06 12:35:06;;;;;;;1.60;0.90;;;29.50;67.20;;;;;;5035870;28;20249;-76
2022/07/06 12:37:34;;;;;;;1.15;1.05;;;29.20;67.30;;;;;;5032862;28;20199;-74
2022/07/06 12:40:02;;;;;;;3.97;1.17;;;28.90;71.30;;;;;;5051781;28;20261;-75
2022/07/06 12:42:29;;;;;;;3.65;1.50;;;28.70;73.60;;;;;;5048617;28;20259;-73
2022/07/06 12:44:56;;;;;;;2.80;1.50;;;27.90;73.00;;;;;;5015705;28;20290;-75
2022/07/06 12:47:24;;;;;;;8.35;1.95;;;27.60;72.00;;;;;;5015667;28;20295;-75
2022/07/06 12:50:29;;;;;;;2.05;1.20;;;27.20;73.00;;;;;;5015396;28;20219;-77
2022/07/06 12:52:56;;;;;;;2.63;1.00;;;27.10;70.80;;;;;;4999680;28;20648;-80
2022/07/06 12:55:28;;;;;;;1.88;0.80;;;27.30;72.00;;;;;;5034659;28;20270;-74